sensor_id;sensor_type;location;lat;lon;timestamp;P1;durP1;ratioP1;P2;durP2;ratioP2
68921;SDS011;55959;51.244;5.724;2023-04-03T00:00:50;5.20;;;3.50;;
68921;SDS011;55959;51.244;5.724;2023-04-03T00:03:17;5.03;;;3.30;;
68921;SDS011;55959;51.244;5.724;2023-04-03T00:05:44;3.63;;;3.03;;
68921;SDS011;55959;51.244;5.724;2023-04-03T00:08:11;3.23;;;2.93;;
68921;SDS011;55959;51.244;5.724;2023-04-03T00:10:37;4.67;;;3.57;;
68921;SDS011;55959;51.244;5.724;2023-04-03T00:13:04;4.63;;;3.27;;
68921;SDS011;55959;51.244;5.724;2023-04-03T00:15:30;4.23;;;3.20;;
68921;SDS011;55959;51.244;5.724;2023-04-03T00:17:57;3.57;;;3.23;;
68921;SDS011;55959;51.244;5.724;2023-04-03T00:20:23;5.23;;;3.43;;
68921;SDS011;55959;51.244;5.724;2023-04-03T00:22:49;4.00;;;3.47;;
68921;SDS011;55959;51.244;5.724;2023-04-03T00:25:15;3.40;;;3.00;;
68921;SDS011;55959;51.244;5.724;2023-04-03T00:27:41;3.37;;;3.07;;
68921;SDS011;55959;51.244;5.724;2023-04-03T00:30:07;5.00;;;3.50;;
68921;SDS011;55959;51.244;5.724;2023-04-03T00:32:40;4.70;;;3.67;;
68921;SDS011;55959;51.244;5.724;2023-04-03T00:35:06;4.20;;;3.50;;
68921;SDS011;55959;51.244;5.724;2023-04-03T00:37:32;4.10;;;3.70;;
68921;SDS011;55959;51.244;5.724;2023-04-03T00:39:58;3.63;;;3.33;;
68921;SDS011;55959;51.244;5.724;2023-04-03T00:42:24;3.83;;;3.43;;
68921;SDS011;55959;51.244;5.724;2023-04-03T00:47:22;4.27;;;3.40;;
68921;SDS011;55959;51.244;5.724;2023-04-03T00:49:49;3.67;;;3.20;;
68921;SDS011;55959;51.244;5.724;2023-04-03T00:52:17;3.70;;;3.40;;
68921;SDS011;55959;51.244;5.724;2023-04-03T00:54:47;4.33;;;3.57;;
68921;SDS011;55959;51.244;5.724;2023-04-03T00:57:15;4.13;;;3.50;;
68921;SDS011;55959;51.244;5.724;2023-04-03T00:59:43;5.13;;;3.30;;
68921;SDS011;55959;51.244;5.724;2023-04-03T01:02:13;3.30;;;3.00;;
68921;SDS011;55959;51.244;5.724;2023-04-03T01:04:41;5.33;;;3.50;;
68921;SDS011;55959;51.244;5.724;2023-04-03T01:09:52;3.77;;;3.47;;
68921;SDS011;55959;51.244;5.724;2023-04-03T01:12:25;3.90;;;3.57;;
68921;SDS011;55959;51.244;5.724;2023-04-03T01:14:58;4.50;;;2.97;;
68921;SDS011;55959;51.244;5.724;2023-04-03T01:17:35;4.07;;;3.70;;
68921;SDS011;55959;51.244;5.724;2023-04-03T01:25:56;5.67;;;4.10;;
68921;SDS011;55959;51.244;5.724;2023-04-03T01:28:24;5.70;;;4.33;;
68921;SDS011;55959;51.244;5.724;2023-04-03T01:33:50;5.07;;;4.00;;
68921;SDS011;55959;51.244;5.724;2023-04-03T01:36:17;5.03;;;4.20;;
68921;SDS011;55959;51.244;5.724;2023-04-03T01:38:49;4.87;;;4.00;;
68921;SDS011;55959;51.244;5.724;2023-04-03T01:41:15;5.00;;;4.50;;
68921;SDS011;55959;51.244;5.724;2023-04-03T01:43:42;5.00;;;3.77;;
68921;SDS011;55959;51.244;5.724;2023-04-03T01:46:08;4.63;;;4.23;;
68921;SDS011;55959;51.244;5.724;2023-04-03T01:48:34;4.97;;;4.00;;
68921;SDS011;55959;51.244;5.724;2023-04-03T01:51:00;5.17;;;4.20;;
68921;SDS011;55959;51.244;5.724;2023-04-03T01:53:25;4.93;;;4.23;;
68921;SDS011;55959;51.244;5.724;2023-04-03T01:55:51;4.70;;;4.20;;
68921;SDS011;55959;51.244;5.724;2023-04-03T01:58:17;7.00;;;4.50;;
68921;SDS011;55959;51.244;5.724;2023-04-03T02:00:44;5.33;;;4.00;;
68921;SDS011;55959;51.244;5.724;2023-04-03T02:03:10;5.33;;;3.90;;
68921;SDS011;55959;51.244;5.724;2023-04-03T02:05:36;4.80;;;3.80;;
68921;SDS011;55959;51.244;5.724;2023-04-03T02:08:02;4.73;;;3.50;;
68921;SDS011;55959;51.244;5.724;2023-04-03T02:10:28;5.10;;;4.53;;
68921;SDS011;55959;51.244;5.724;2023-04-03T02:12:54;5.10;;;4.60;;
68921;SDS011;55959;51.244;5.724;2023-04-03T02:15:20;5.47;;;4.10;;
68921;SDS011;55959;51.244;5.724;2023-04-03T02:17:46;4.23;;;3.77;;
68921;SDS011;55959;51.244;5.724;2023-04-03T02:20:12;6.80;;;4.40;;
68921;SDS011;55959;51.244;5.724;2023-04-03T02:22:37;4.37;;;3.77;;
68921;SDS011;55959;51.244;5.724;2023-04-03T02:25:03;5.07;;;4.40;;
68921;SDS011;55959;51.244;5.724;2023-04-03T02:27:30;4.30;;;3.90;;
68921;SDS011;55959;51.244;5.724;2023-04-03T02:29:56;4.90;;;4.50;;
68921;SDS011;55959;51.244;5.724;2023-04-03T02:32:22;5.33;;;4.13;;
68921;SDS011;55959;51.244;5.724;2023-04-03T02:34:48;4.73;;;4.23;;
68921;SDS011;55959;51.244;5.724;2023-04-03T02:37:13;5.17;;;4.40;;
68921;SDS011;55959;51.244;5.724;2023-04-03T02:39:40;3.90;;;3.57;;
68921;SDS011;55959;51.244;5.724;2023-04-03T02:42:05;7.10;;;4.47;;
68921;SDS011;55959;51.244;5.724;2023-04-03T02:44:32;4.63;;;4.20;;
68921;SDS011;55959;51.244;5.724;2023-04-03T02:46:58;4.93;;;4.43;;
68921;SDS011;55959;51.244;5.724;2023-04-03T02:49:23;4.67;;;4.27;;
68921;SDS011;55959;51.244;5.724;2023-04-03T02:51:49;6.83;;;4.37;;
68921;SDS011;55959;51.244;5.724;2023-04-03T02:54:16;4.63;;;4.20;;
68921;SDS011;55959;51.244;5.724;2023-04-03T02:56:41;7.53;;;4.70;;
68921;SDS011;55959;51.244;5.724;2023-04-03T02:59:07;5.43;;;4.23;;
68921;SDS011;55959;51.244;5.724;2023-04-03T03:01:33;7.17;;;4.87;;
68921;SDS011;55959;51.244;5.724;2023-04-03T03:03:59;5.00;;;4.50;;
68921;SDS011;55959;51.244;5.724;2023-04-03T03:06:25;5.07;;;4.33;;
68921;SDS011;55959;51.244;5.724;2023-04-03T03:08:52;5.20;;;4.20;;
68921;SDS011;55959;51.244;5.724;2023-04-03T03:11:18;4.63;;;4.00;;
68921;SDS011;55959;51.244;5.724;2023-04-03T03:13:44;4.67;;;4.13;;
68921;SDS011;55959;51.244;5.724;2023-04-03T03:16:10;4.40;;;4.00;;
68921;SDS011;55959;51.244;5.724;2023-04-03T03:18:36;5.27;;;4.50;;
68921;SDS011;55959;51.244;5.724;2023-04-03T03:21:02;5.63;;;4.70;;
68921;SDS011;55959;51.244;5.724;2023-04-03T03:23:29;5.13;;;4.40;;
68921;SDS011;55959;51.244;5.724;2023-04-03T03:25:58;4.33;;;3.93;;
68921;SDS011;55959;51.244;5.724;2023-04-03T03:28:30;5.90;;;4.40;;
68921;SDS011;55959;51.244;5.724;2023-04-03T03:30:57;4.50;;;4.10;;
68921;SDS011;55959;51.244;5.724;2023-04-03T03:33:24;4.97;;;4.20;;
68921;SDS011;55959;51.244;5.724;2023-04-03T03:35:52;4.53;;;4.07;;
68921;SDS011;55959;51.244;5.724;2023-04-03T03:38:19;4.17;;;3.83;;
68921;SDS011;55959;51.244;5.724;2023-04-03T03:40:48;4.60;;;4.20;;
68921;SDS011;55959;51.244;5.724;2023-04-03T03:43:15;4.43;;;3.57;;
68921;SDS011;55959;51.244;5.724;2023-04-03T03:45:42;3.97;;;3.60;;
68921;SDS011;55959;51.244;5.724;2023-04-03T03:48:09;4.97;;;4.37;;
68921;SDS011;55959;51.244;5.724;2023-04-03T03:50:35;4.83;;;4.03;;
68921;SDS011;55959;51.244;5.724;2023-04-03T03:53:01;4.00;;;3.67;;
68921;SDS011;55959;51.244;5.724;2023-04-03T03:55:26;5.17;;;4.67;;
68921;SDS011;55959;51.244;5.724;2023-04-03T03:57:52;4.67;;;4.23;;
68921;SDS011;55959;51.244;5.724;2023-04-03T04:00:18;3.87;;;3.47;;
68921;SDS011;55959;51.244;5.724;2023-04-03T04:02:44;4.20;;;3.63;;
68921;SDS011;55959;51.244;5.724;2023-04-03T04:05:10;4.73;;;3.87;;
68921;SDS011;55959;51.244;5.724;2023-04-03T04:07:36;4.47;;;3.30;;
68921;SDS011;55959;51.244;5.724;2023-04-03T04:10:02;4.77;;;3.47;;
68921;SDS011;55959;51.244;5.724;2023-04-03T04:12:29;7.63;;;4.20;;
68921;SDS011;55959;51.244;5.724;2023-04-03T04:14:54;4.07;;;3.63;;
68921;SDS011;55959;51.244;5.724;2023-04-03T04:17:21;4.97;;;3.57;;
68921;SDS011;55959;51.244;5.724;2023-04-03T04:19:46;4.43;;;3.20;;
68921;SDS011;55959;51.244;5.724;2023-04-03T04:22:12;4.30;;;3.73;;
68921;SDS011;55959;51.244;5.724;2023-04-03T04:24:38;4.73;;;4.03;;
68921;SDS011;55959;51.244;5.724;2023-04-03T04:27:04;4.00;;;3.33;;
68921;SDS011;55959;51.244;5.724;2023-04-03T04:29:30;4.57;;;3.67;;
68921;SDS011;55959;51.244;5.724;2023-04-03T04:32:00;6.07;;;3.83;;
68921;SDS011;55959;51.244;5.724;2023-04-03T04:34:27;4.53;;;3.63;;
68921;SDS011;55959;51.244;5.724;2023-04-03T04:36:53;4.67;;;3.60;;
68921;SDS011;55959;51.244;5.724;2023-04-03T04:39:19;5.57;;;3.50;;
68921;SDS011;55959;51.244;5.724;2023-04-03T04:41:44;6.03;;;3.70;;
68921;SDS011;55959;51.244;5.724;2023-04-03T04:44:10;4.07;;;3.23;;
68921;SDS011;55959;51.244;5.724;2023-04-03T04:46:36;3.90;;;3.30;;
68921;SDS011;55959;51.244;5.724;2023-04-03T04:49:02;5.13;;;3.50;;
68921;SDS011;55959;51.244;5.724;2023-04-03T04:51:27;5.70;;;3.10;;
68921;SDS011;55959;51.244;5.724;2023-04-03T04:53:53;4.70;;;2.83;;
68921;SDS011;55959;51.244;5.724;2023-04-03T04:56:19;4.47;;;3.07;;
68921;SDS011;55959;51.244;5.724;2023-04-03T04:58:45;3.83;;;2.67;;
68921;SDS011;55959;51.244;5.724;2023-04-03T05:01:12;4.23;;;2.70;;
68921;SDS011;55959;51.244;5.724;2023-04-03T05:03:38;5.17;;;2.83;;
68921;SDS011;55959;51.244;5.724;2023-04-03T05:06:04;5.70;;;3.20;;
68921;SDS011;55959;51.244;5.724;2023-04-03T05:08:30;4.20;;;3.03;;
68921;SDS011;55959;51.244;5.724;2023-04-03T05:10:57;4.50;;;3.03;;
68921;SDS011;55959;51.244;5.724;2023-04-03T05:13:22;4.50;;;2.93;;
68921;SDS011;55959;51.244;5.724;2023-04-03T05:15:48;4.67;;;3.00;;
68921;SDS011;55959;51.244;5.724;2023-04-03T05:18:14;4.80;;;3.27;;
68921;SDS011;55959;51.244;5.724;2023-04-03T05:20:40;5.80;;;3.10;;
68921;SDS011;55959;51.244;5.724;2023-04-03T05:23:05;3.57;;;2.93;;
68921;SDS011;55959;51.244;5.724;2023-04-03T05:25:31;3.07;;;2.63;;
68921;SDS011;55959;51.244;5.724;2023-04-03T05:27:57;4.60;;;2.73;;
68921;SDS011;55959;51.244;5.724;2023-04-03T05:30:23;3.97;;;2.63;;
68921;SDS011;55959;51.244;5.724;2023-04-03T05:32:49;4.20;;;2.97;;
68921;SDS011;55959;51.244;5.724;2023-04-03T05:35:15;3.90;;;3.37;;
68921;SDS011;55959;51.244;5.724;2023-04-03T05:37:41;3.07;;;2.60;;
68921;SDS011;55959;51.244;5.724;2023-04-03T05:40:07;3.30;;;2.50;;
68921;SDS011;55959;51.244;5.724;2023-04-03T05:42:33;4.27;;;2.70;;
68921;SDS011;55959;51.244;5.724;2023-04-03T05:44:59;3.80;;;2.87;;
68921;SDS011;55959;51.244;5.724;2023-04-03T05:47:25;3.90;;;3.00;;
68921;SDS011;55959;51.244;5.724;2023-04-03T05:49:51;6.20;;;2.67;;
68921;SDS011;55959;51.244;5.724;2023-04-03T05:52:18;3.43;;;2.53;;
68921;SDS011;55959;51.244;5.724;2023-04-03T05:54:52;4.97;;;2.67;;
68921;SDS011;55959;51.244;5.724;2023-04-03T05:57:18;5.57;;;3.03;;
68921;SDS011;55959;51.244;5.724;2023-04-03T05:59:45;3.97;;;2.67;;
68921;SDS011;55959;51.244;5.724;2023-04-03T06:02:12;6.80;;;3.70;;
68921;SDS011;55959;51.244;5.724;2023-04-03T06:04:41;5.80;;;3.10;;
68921;SDS011;55959;51.244;5.724;2023-04-03T06:07:08;5.40;;;2.33;;
68921;SDS011;55959;51.244;5.724;2023-04-03T06:09:37;4.70;;;3.20;;
68921;SDS011;55959;51.244;5.724;2023-04-03T06:12:03;5.37;;;2.70;;
68921;SDS011;55959;51.244;5.724;2023-04-03T06:14:29;4.63;;;2.40;;
68921;SDS011;55959;51.244;5.724;2023-04-03T06:16:55;4.40;;;2.50;;
68921;SDS011;55959;51.244;5.724;2023-04-03T06:19:21;5.67;;;2.70;;
68921;SDS011;55959;51.244;5.724;2023-04-03T06:21:47;5.77;;;2.43;;
68921;SDS011;55959;51.244;5.724;2023-04-03T06:24:14;4.50;;;3.17;;
68921;SDS011;55959;51.244;5.724;2023-04-03T06:26:42;4.67;;;2.87;;
68921;SDS011;55959;51.244;5.724;2023-04-03T06:29:08;4.50;;;2.27;;
68921;SDS011;55959;51.244;5.724;2023-04-03T06:31:34;6.93;;;3.17;;
68921;SDS011;55959;51.244;5.724;2023-04-03T06:34:02;6.27;;;2.20;;
68921;SDS011;55959;51.244;5.724;2023-04-03T06:36:28;4.10;;;2.20;;
68921;SDS011;55959;51.244;5.724;2023-04-03T06:38:54;4.33;;;2.30;;
68921;SDS011;55959;51.244;5.724;2023-04-03T06:41:21;4.07;;;2.60;;
68921;SDS011;55959;51.244;5.724;2023-04-03T06:43:46;4.50;;;2.33;;
68921;SDS011;55959;51.244;5.724;2023-04-03T06:46:16;5.93;;;2.33;;
68921;SDS011;55959;51.244;5.724;2023-04-03T06:48:46;5.77;;;2.40;;
68921;SDS011;55959;51.244;5.724;2023-04-03T06:51:21;5.93;;;2.57;;
68921;SDS011;55959;51.244;5.724;2023-04-03T06:53:53;3.93;;;2.17;;
68921;SDS011;55959;51.244;5.724;2023-04-03T06:56:21;3.63;;;2.17;;
68921;SDS011;55959;51.244;5.724;2023-04-03T06:58:47;3.50;;;2.20;;
68921;SDS011;55959;51.244;5.724;2023-04-03T07:01:14;3.73;;;2.20;;
68921;SDS011;55959;51.244;5.724;2023-04-03T07:03:41;3.23;;;1.80;;
68921;SDS011;55959;51.244;5.724;2023-04-03T07:06:09;3.87;;;2.00;;
68921;SDS011;55959;51.244;5.724;2023-04-03T07:08:37;3.47;;;2.10;;
68921;SDS011;55959;51.244;5.724;2023-04-03T07:11:03;5.67;;;2.33;;
68921;SDS011;55959;51.244;5.724;2023-04-03T07:13:30;5.20;;;2.70;;
68921;SDS011;55959;51.244;5.724;2023-04-03T07:15:57;3.70;;;2.10;;
68921;SDS011;55959;51.244;5.724;2023-04-03T07:18:23;3.87;;;2.40;;
68921;SDS011;55959;51.244;5.724;2023-04-03T07:20:49;4.60;;;2.63;;
68921;SDS011;55959;51.244;5.724;2023-04-03T07:23:15;5.63;;;2.80;;
68921;SDS011;55959;51.244;5.724;2023-04-03T07:25:47;4.63;;;2.50;;
68921;SDS011;55959;51.244;5.724;2023-04-03T07:28:16;5.80;;;2.50;;
68921;SDS011;55959;51.244;5.724;2023-04-03T07:30:53;6.70;;;2.53;;
68921;SDS011;55959;51.244;5.724;2023-04-03T07:33:26;3.43;;;2.20;;
68921;SDS011;55959;51.244;5.724;2023-04-03T07:35:52;4.47;;;2.37;;
68921;SDS011;55959;51.244;5.724;2023-04-03T07:38:19;4.83;;;2.30;;
68921;SDS011;55959;51.244;5.724;2023-04-03T07:40:45;4.77;;;2.57;;
68921;SDS011;55959;51.244;5.724;2023-04-03T07:43:13;5.73;;;2.60;;
68921;SDS011;55959;51.244;5.724;2023-04-03T07:45:40;4.57;;;1.90;;
68921;SDS011;55959;51.244;5.724;2023-04-03T07:48:05;3.40;;;2.40;;
68921;SDS011;55959;51.244;5.724;2023-04-03T07:50:33;6.13;;;2.60;;
68921;SDS011;55959;51.244;5.724;2023-04-03T07:52:58;5.93;;;2.40;;
68921;SDS011;55959;51.244;5.724;2023-04-03T07:55:25;4.80;;;2.03;;
68921;SDS011;55959;51.244;5.724;2023-04-03T07:57:50;4.37;;;2.23;;
68921;SDS011;55959;51.244;5.724;2023-04-03T08:00:16;4.40;;;1.90;;
68921;SDS011;55959;51.244;5.724;2023-04-03T08:02:43;4.70;;;2.33;;
68921;SDS011;55959;51.244;5.724;2023-04-03T08:05:09;5.33;;;2.00;;
68921;SDS011;55959;51.244;5.724;2023-04-03T08:07:36;5.63;;;2.30;;
68921;SDS011;55959;51.244;5.724;2023-04-03T08:10:03;2.93;;;1.90;;
68921;SDS011;55959;51.244;5.724;2023-04-03T08:12:29;5.30;;;2.30;;
68921;SDS011;55959;51.244;5.724;2023-04-03T08:14:56;3.97;;;2.13;;
68921;SDS011;55959;51.244;5.724;2023-04-03T08:17:25;4.37;;;1.97;;
68921;SDS011;55959;51.244;5.724;2023-04-03T08:19:51;6.77;;;2.40;;
68921;SDS011;55959;51.244;5.724;2023-04-03T08:22:16;6.57;;;2.20;;
68921;SDS011;55959;51.244;5.724;2023-04-03T08:24:42;5.27;;;2.20;;
68921;SDS011;55959;51.244;5.724;2023-04-03T08:27:09;4.10;;;2.07;;
68921;SDS011;55959;51.244;5.724;2023-04-03T08:29:35;5.13;;;2.20;;
68921;SDS011;55959;51.244;5.724;2023-04-03T08:32:02;4.03;;;1.97;;
68921;SDS011;55959;51.244;5.724;2023-04-03T08:34:29;5.40;;;1.97;;
68921;SDS011;55959;51.244;5.724;2023-04-03T08:36:55;3.97;;;1.60;;
68921;SDS011;55959;51.244;5.724;2023-04-03T08:39:21;3.00;;;2.07;;
68921;SDS011;55959;51.244;5.724;2023-04-03T08:41:47;7.83;;;2.30;;
68921;SDS011;55959;51.244;5.724;2023-04-03T08:52:17;3.80;;;1.90;;
68921;SDS011;55959;51.244;5.724;2023-04-03T08:55:46;5.40;;;2.50;;
68921;SDS011;55959;51.244;5.724;2023-04-03T08:58:12;6.13;;;2.13;;
68921;SDS011;55959;51.244;5.724;2023-04-03T09:00:55;3.87;;;2.10;;
68921;SDS011;55959;51.244;5.724;2023-04-03T09:03:33;4.50;;;2.07;;
68921;SDS011;55959;51.244;5.724;2023-04-03T09:06:04;4.23;;;2.17;;
68921;SDS011;55959;51.244;5.724;2023-04-03T09:09:06;4.60;;;2.00;;
68921;SDS011;55959;51.244;5.724;2023-04-03T09:20:45;4.00;;;2.30;;
68921;SDS011;55959;51.244;5.724;2023-04-03T09:26:28;4.33;;;2.47;;
68921;SDS011;55959;51.244;5.724;2023-04-03T09:29:01;2.77;;;1.50;;
68921;SDS011;55959;51.244;5.724;2023-04-03T09:31:36;3.63;;;1.70;;
68921;SDS011;55959;51.244;5.724;2023-04-03T09:34:06;3.23;;;1.40;;
68921;SDS011;55959;51.244;5.724;2023-04-03T09:36:55;5.37;;;1.60;;
68921;SDS011;55959;51.244;5.724;2023-04-03T09:39:30;2.77;;;1.50;;
68921;SDS011;55959;51.244;5.724;2023-04-03T09:42:31;3.90;;;1.80;;
68921;SDS011;55959;51.244;5.724;2023-04-03T09:44:56;3.73;;;1.60;;
68921;SDS011;55959;51.244;5.724;2023-04-03T09:52:43;2.77;;;1.57;;
68921;SDS011;55959;51.244;5.724;2023-04-03T09:55:32;3.80;;;1.43;;
68921;SDS011;55959;51.244;5.724;2023-04-03T09:58:22;3.10;;;1.53;;
68921;SDS011;55959;51.244;5.724;2023-04-03T10:00:59;3.60;;;1.63;;
68921;SDS011;55959;51.244;5.724;2023-04-03T10:03:31;2.90;;;1.90;;
68921;SDS011;55959;51.244;5.724;2023-04-03T10:06:01;3.93;;;1.60;;
68921;SDS011;55959;51.244;5.724;2023-04-03T10:08:58;4.43;;;1.90;;
68921;SDS011;55959;51.244;5.724;2023-04-03T10:11:29;2.90;;;1.60;;
68921;SDS011;55959;51.244;5.724;2023-04-03T10:13:56;3.97;;;1.57;;
68921;SDS011;55959;51.244;5.724;2023-04-03T10:16:32;2.90;;;1.70;;
68921;SDS011;55959;51.244;5.724;2023-04-03T10:19:39;2.43;;;1.47;;
68921;SDS011;55959;51.244;5.724;2023-04-03T10:22:16;2.93;;;1.30;;
68921;SDS011;55959;51.244;5.724;2023-04-03T10:25:14;4.03;;;1.70;;
68921;SDS011;55959;51.244;5.724;2023-04-03T10:27:55;3.13;;;1.57;;
68921;SDS011;55959;51.244;5.724;2023-04-03T10:30:41;2.67;;;1.53;;
68921;SDS011;55959;51.244;5.724;2023-04-03T10:36:56;3.73;;;1.67;;
68921;SDS011;55959;51.244;5.724;2023-04-03T10:39:31;3.33;;;1.50;;
68921;SDS011;55959;51.244;5.724;2023-04-03T10:50:53;4.60;;;1.90;;
68921;SDS011;55959;51.244;5.724;2023-04-03T10:59:33;1.97;;;1.37;;
68921;SDS011;55959;51.244;5.724;2023-04-03T11:02:24;3.13;;;1.17;;
68921;SDS011;55959;51.244;5.724;2023-04-03T11:04:59;1.70;;;1.00;;
68921;SDS011;55959;51.244;5.724;2023-04-03T11:07:32;2.30;;;1.10;;
68921;SDS011;55959;51.244;5.724;2023-04-03T11:10:15;1.30;;;1.00;;
68921;SDS011;55959;51.244;5.724;2023-04-03T11:15:43;1.87;;;1.07;;
68921;SDS011;55959;51.244;5.724;2023-04-03T11:18:17;2.17;;;0.80;;
68921;SDS011;55959;51.244;5.724;2023-04-03T11:20:52;2.73;;;1.00;;
68921;SDS011;55959;51.244;5.724;2023-04-03T11:23:26;2.07;;;1.03;;
68921;SDS011;55959;51.244;5.724;2023-04-03T11:26:04;1.67;;;1.13;;
68921;SDS011;55959;51.244;5.724;2023-04-03T11:28:37;3.17;;;1.13;;
68921;SDS011;55959;51.244;5.724;2023-04-03T11:33:48;2.47;;;1.20;;
68921;SDS011;55959;51.244;5.724;2023-04-03T11:36:45;2.00;;;1.00;;
68921;SDS011;55959;51.244;5.724;2023-04-03T11:39:26;1.43;;;1.10;;
68921;SDS011;55959;51.244;5.724;2023-04-03T11:53:44;2.17;;;1.00;;
68921;SDS011;55959;51.244;5.724;2023-04-03T11:55:57;2.83;;;1.00;;
68921;SDS011;55959;51.244;5.724;2023-04-03T11:58:26;2.67;;;1.10;;
68921;SDS011;55959;51.244;5.724;2023-04-03T12:01:02;3.13;;;1.30;;
68921;SDS011;55959;51.244;5.724;2023-04-03T12:24:28;1.93;;;1.20;;
68921;SDS011;55959;51.244;5.724;2023-04-03T12:41:15;2.27;;;1.30;;
68921;SDS011;55959;51.244;5.724;2023-04-03T12:44:13;3.37;;;1.33;;
68921;SDS011;55959;51.244;5.724;2023-04-03T12:47:08;2.53;;;1.03;;
68921;SDS011;55959;51.244;5.724;2023-04-03T12:49:53;2.13;;;1.30;;
68921;SDS011;55959;51.244;5.724;2023-04-03T12:54:58;2.00;;;1.03;;
68921;SDS011;55959;51.244;5.724;2023-04-03T12:57:28;2.53;;;1.40;;
68921;SDS011;55959;51.244;5.724;2023-04-03T12:59:55;2.73;;;1.30;;
68921;SDS011;55959;51.244;5.724;2023-04-03T13:02:29;4.10;;;1.63;;
68921;SDS011;55959;51.244;5.724;2023-04-03T13:04:59;1.63;;;1.10;;
68921;SDS011;55959;51.244;5.724;2023-04-03T13:07:34;1.97;;;1.20;;
68921;SDS011;55959;51.244;5.724;2023-04-03T13:12:33;1.70;;;1.43;;
68921;SDS011;55959;51.244;5.724;2023-04-03T13:15:02;1.47;;;1.07;;
68921;SDS011;55959;51.244;5.724;2023-04-03T13:17:41;2.23;;;1.10;;
68921;SDS011;55959;51.244;5.724;2023-04-03T13:20:19;3.80;;;1.10;;
68921;SDS011;55959;51.244;5.724;2023-04-03T13:22:56;2.07;;;1.30;;
68921;SDS011;55959;51.244;5.724;2023-04-03T13:25:29;2.60;;;1.40;;
68921;SDS011;55959;51.244;5.724;2023-04-03T13:27:59;2.53;;;1.07;;
68921;SDS011;55959;51.244;5.724;2023-04-03T13:32:56;2.60;;;1.47;;
68921;SDS011;55959;51.244;5.724;2023-04-03T13:35:26;2.53;;;1.23;;
68921;SDS011;55959;51.244;5.724;2023-04-03T13:43:55;2.47;;;1.23;;
68921;SDS011;55959;51.244;5.724;2023-04-03T13:46:27;1.83;;;1.10;;
68921;SDS011;55959;51.244;5.724;2023-04-03T13:48:54;3.13;;;1.60;;
68921;SDS011;55959;51.244;5.724;2023-04-03T13:51:23;3.00;;;1.50;;
68921;SDS011;55959;51.244;5.724;2023-04-03T13:53:54;3.20;;;1.50;;
68921;SDS011;55959;51.244;5.724;2023-04-03T13:56:27;2.23;;;1.60;;
68921;SDS011;55959;51.244;5.724;2023-04-03T14:01:45;2.57;;;1.70;;
68921;SDS011;55959;51.244;5.724;2023-04-03T14:06:57;5.93;;;1.80;;
68921;SDS011;55959;51.244;5.724;2023-04-03T14:09:25;4.40;;;1.63;;
68921;SDS011;55959;51.244;5.724;2023-04-03T14:11:53;3.43;;;1.87;;
68921;SDS011;55959;51.244;5.724;2023-04-03T14:14:30;2.30;;;1.50;;
68921;SDS011;55959;51.244;5.724;2023-04-03T14:17:01;1.50;;;1.20;;
68921;SDS011;55959;51.244;5.724;2023-04-03T14:19:32;1.90;;;1.33;;
68921;SDS011;55959;51.244;5.724;2023-04-03T14:22:01;3.93;;;1.40;;
68921;SDS011;55959;51.244;5.724;2023-04-03T14:24:40;1.83;;;1.20;;
68921;SDS011;55959;51.244;5.724;2023-04-03T14:27:11;2.53;;;1.60;;
68921;SDS011;55959;51.244;5.724;2023-04-03T14:29:49;3.93;;;1.33;;
68921;SDS011;55959;51.244;5.724;2023-04-03T14:32:17;2.03;;;1.50;;
68921;SDS011;55959;51.244;5.724;2023-04-03T14:34:45;3.27;;;1.40;;
68921;SDS011;55959;51.244;5.724;2023-04-03T14:37:13;3.53;;;1.83;;
68921;SDS011;55959;51.244;5.724;2023-04-03T14:39:43;3.90;;;1.57;;
68921;SDS011;55959;51.244;5.724;2023-04-03T14:42:14;2.13;;;1.57;;
68921;SDS011;55959;51.244;5.724;2023-04-03T14:44:44;3.03;;;1.43;;
68921;SDS011;55959;51.244;5.724;2023-04-03T14:47:14;3.17;;;1.70;;
68921;SDS011;55959;51.244;5.724;2023-04-03T14:49:44;2.23;;;1.33;;
68921;SDS011;55959;51.244;5.724;2023-04-03T14:52:16;2.23;;;1.33;;
68921;SDS011;55959;51.244;5.724;2023-04-03T14:54:49;2.13;;;1.17;;
68921;SDS011;55959;51.244;5.724;2023-04-03T14:57:16;4.07;;;1.30;;
68921;SDS011;55959;51.244;5.724;2023-04-03T14:59:43;2.20;;;1.53;;
68921;SDS011;55959;51.244;5.724;2023-04-03T15:04:53;1.70;;;1.03;;
68921;SDS011;55959;51.244;5.724;2023-04-03T15:07:23;2.87;;;1.30;;
68921;SDS011;55959;51.244;5.724;2023-04-03T15:09:52;2.27;;;1.27;;
68921;SDS011;55959;51.244;5.724;2023-04-03T15:12:18;2.83;;;1.30;;
68921;SDS011;55959;51.244;5.724;2023-04-03T15:14:43;2.30;;;1.47;;
68921;SDS011;55959;51.244;5.724;2023-04-03T15:17:16;4.23;;;1.77;;
68921;SDS011;55959;51.244;5.724;2023-04-03T15:19:45;4.23;;;1.53;;
68921;SDS011;55959;51.244;5.724;2023-04-03T15:22:15;3.13;;;1.50;;
68921;SDS011;55959;51.244;5.724;2023-04-03T15:24:45;2.53;;;1.60;;
68921;SDS011;55959;51.244;5.724;2023-04-03T15:27:11;1.87;;;1.10;;
68921;SDS011;55959;51.244;5.724;2023-04-03T15:29:38;3.47;;;1.30;;
68921;SDS011;55959;51.244;5.724;2023-04-03T15:32:05;2.20;;;1.37;;
68921;SDS011;55959;51.244;5.724;2023-04-03T15:34:31;2.70;;;1.37;;
68921;SDS011;55959;51.244;5.724;2023-04-03T15:36:57;2.17;;;1.17;;
68921;SDS011;55959;51.244;5.724;2023-04-03T15:39:24;2.73;;;1.70;;
68921;SDS011;55959;51.244;5.724;2023-04-03T15:41:51;1.57;;;1.17;;
68921;SDS011;55959;51.244;5.724;2023-04-03T15:44:17;2.00;;;1.37;;
68921;SDS011;55959;51.244;5.724;2023-04-03T15:46:44;2.57;;;1.23;;
68921;SDS011;55959;51.244;5.724;2023-04-03T15:49:10;2.17;;;1.17;;
68921;SDS011;55959;51.244;5.724;2023-04-03T15:51:37;1.80;;;1.10;;
68921;SDS011;55959;51.244;5.724;2023-04-03T15:54:03;2.17;;;1.30;;
68921;SDS011;55959;51.244;5.724;2023-04-03T15:56:28;2.97;;;1.80;;
68921;SDS011;55959;51.244;5.724;2023-04-03T15:58:54;3.33;;;1.30;;
68921;SDS011;55959;51.244;5.724;2023-04-03T16:01:20;2.23;;;1.47;;
68921;SDS011;55959;51.244;5.724;2023-04-03T16:03:46;2.70;;;1.40;;
68921;SDS011;55959;51.244;5.724;2023-04-03T16:06:16;2.53;;;1.40;;
68921;SDS011;55959;51.244;5.724;2023-04-03T16:08:44;2.13;;;1.33;;
68921;SDS011;55959;51.244;5.724;2023-04-03T16:11:11;2.90;;;1.40;;
68921;SDS011;55959;51.244;5.724;2023-04-03T16:13:37;4.63;;;1.60;;
68921;SDS011;55959;51.244;5.724;2023-04-03T16:16:03;2.50;;;1.40;;
68921;SDS011;55959;51.244;5.724;2023-04-03T16:18:30;2.23;;;1.30;;
68921;SDS011;55959;51.244;5.724;2023-04-03T16:20:56;3.17;;;1.53;;
68921;SDS011;55959;51.244;5.724;2023-04-03T16:23:22;3.50;;;1.20;;
68921;SDS011;55959;51.244;5.724;2023-04-03T16:25:48;3.37;;;1.27;;
68921;SDS011;55959;51.244;5.724;2023-04-03T16:28:16;1.87;;;1.17;;
68921;SDS011;55959;51.244;5.724;2023-04-03T16:30:43;2.80;;;1.37;;
68921;SDS011;55959;51.244;5.724;2023-04-03T16:33:12;5.63;;;1.40;;
68921;SDS011;55959;51.244;5.724;2023-04-03T16:35:38;2.80;;;1.20;;
68921;SDS011;55959;51.244;5.724;2023-04-03T16:38:07;3.53;;;1.17;;
68921;SDS011;55959;51.244;5.724;2023-04-03T16:40:33;2.37;;;1.10;;
68921;SDS011;55959;51.244;5.724;2023-04-03T16:43:00;2.27;;;1.37;;
68921;SDS011;55959;51.244;5.724;2023-04-03T16:45:27;2.57;;;1.60;;
68921;SDS011;55959;51.244;5.724;2023-04-03T16:47:53;3.13;;;1.47;;
68921;SDS011;55959;51.244;5.724;2023-04-03T16:50:18;2.73;;;1.33;;
68921;SDS011;55959;51.244;5.724;2023-04-03T16:52:45;2.87;;;1.50;;
68921;SDS011;55959;51.244;5.724;2023-04-03T16:55:11;3.53;;;1.20;;
68921;SDS011;55959;51.244;5.724;2023-04-03T16:57:37;3.30;;;1.53;;
68921;SDS011;55959;51.244;5.724;2023-04-03T17:00:03;2.90;;;1.30;;
68921;SDS011;55959;51.244;5.724;2023-04-03T17:02:30;2.93;;;1.30;;
68921;SDS011;55959;51.244;5.724;2023-04-03T17:04:56;3.33;;;1.53;;
68921;SDS011;55959;51.244;5.724;2023-04-03T17:07:22;2.33;;;1.10;;
68921;SDS011;55959;51.244;5.724;2023-04-03T17:09:50;3.30;;;1.23;;
68921;SDS011;55959;51.244;5.724;2023-04-03T17:12:18;4.07;;;1.30;;